Time;durP1;ratioP1;P1;durP2;ratioP2;P2;SDS_P1;SDS_P2;PMS_P1;PMS_P2;Temp;Humidity;BMP_temperature;BMP_pressure;BME280_temperature;BME280_humidity;BME280_pressure;Samples;Min_cycle;Max_cycle;Signal;HPM_P1;HPM_P2
2023/11/22 00:01:13;;;;;;;6.30;3.28;;;;;;;9.58;100.00;92291.25;5071916;28;20146;-78
2023/11/22 00:03:40;;;;;;;5.05;3.40;;;;;;;9.63;100.00;92300.84;5070370;28;20052;-78
2023/11/22 00:06:08;;;;;;;6.18;3.58;;;;;;;9.62;100.00;92291.56;5069646;28;20045;-77
2023/11/22 00:08:35;;;;;;;7.70;3.47;;;;;;;9.62;100.00;92289.00;5069761;28;20048;-78
2023/11/22 00:11:02;;;;;;;7.40;3.40;;;;;;;9.59;100.00;92286.91;5070041;28;20045;-79
2023/11/22 00:13:29;;;;;;;5.25;3.17;;;;;;;9.60;100.00;92288.44;5070237;28;20063;-79
2023/11/22 00:15:56;;;;;;;6.40;3.28;;;;;;;9.59;100.00;92287.66;5069687;28;20075;-79
2023/11/22 00:18:26;;;;;;;6.32;3.67;;;;;;;9.60;100.00;92284.13;5070378;28;20080;-78
2023/11/22 00:20:52;;;;;;;8.35;4.25;;;;;;;9.62;100.00;92287.22;5070578;28;20443;-78
2023/11/22 00:23:19;;;;;;;6.22;3.75;;;;;;;9.61;100.00;92285.66;5069691;28;20044;-79
2023/11/22 00:25:46;;;;;;;8.15;3.80;;;;;;;9.61;100.00;92284.88;5069995;28;20059;-80
2023/11/22 00:28:13;;;;;;;7.15;3.83;;;;;;;9.49;100.00;92284.88;5071807;28;20045;-81
2023/11/22 00:30:40;;;;;;;6.47;3.28;;;;;;;9.62;100.00;92297.47;5069706;28;20049;-77
2023/11/22 00:33:07;;;;;;;6.60;3.75;;;;;;;9.66;100.00;92295.25;5069426;28;20055;-77
2023/11/22 00:35:35;;;;;;;5.72;3.85;;;;;;;9.65;100.00;92298.81;5079127;28;20154;-78
2023/11/22 00:38:02;;;;;;;6.80;4.70;;;;;;;9.66;100.00;92290.09;5070107;28;20059;-77
2023/11/22 00:40:29;;;;;;;8.60;4.82;;;;;;;9.69;100.00;92299.94;5071299;28;20052;-77
2023/11/22 00:42:56;;;;;;;7.50;3.83;;;;;;;9.72;100.00;92296.13;5077849;28;20044;-77
2023/11/22 00:45:23;;;;;;;5.30;3.10;;;;;;;9.71;100.00;92302.25;5080309;28;20040;-76
2023/11/22 00:47:50;;;;;;;7.35;3.53;;;;;;;9.79;100.00;92301.91;5069906;28;20052;-78
2023/11/22 00:50:19;;;;;;;5.20;3.38;;;;;;;9.84;100.00;92302.00;5080725;28;20040;-79
2023/11/22 00:52:48;;;;;;;5.20;3.03;;;;;;;9.67;100.00;92273.72;5071751;28;20044;-78
2023/11/22 00:55:15;;;;;;;4.97;3.22;;;;;;;9.83;100.00;92297.09;5073697;28;20052;-80
2023/11/22 00:57:42;;;;;;;6.43;3.35;;;;;;;9.85;100.00;92290.72;5074129;28;20058;-79
2023/11/22 01:00:11;;;;;;;5.80;3.28;;;;;;;9.91;100.00;92288.28;5072458;28;20069;-79
2023/11/22 01:02:38;;;;;;;5.15;2.97;;;;;;;9.92;100.00;92282.91;5081782;28;20040;-78
2023/11/22 01:05:09;;;;;;;5.20;3.58;;;;;;;9.93;100.00;92284.47;5077896;28;20118;-79
2023/11/22 01:07:36;;;;;;;4.68;3.35;;;;;;;9.92;100.00;92282.13;5078652;28;20060;-79
2023/11/22 01:10:06;;;;;;;5.30;3.50;;;;;;;9.89;100.00;92291.06;5070443;28;20079;-79
2023/11/22 01:12:33;;;;;;;4.93;3.17;;;;;;;9.89;100.00;92284.16;5073068;28;22674;-78
2023/11/22 01:15:00;;;;;;;3.45;2.72;;;;;;;9.88;100.00;92285.16;5069315;28;20040;-79
2023/11/22 01:17:27;;;;;;;5.75;3.53;;;;;;;9.96;100.00;92293.50;5075324;28;20072;-80
2023/11/22 01:19:53;;;;;;;5.22;3.33;;;;;;;9.88;100.00;92282.59;5073421;28;20052;-80
2023/11/22 01:22:20;;;;;;;4.82;3.42;;;;;;;9.89;100.00;92273.88;5069878;28;20047;-79
2023/11/22 01:24:47;;;;;;;4.38;3.05;;;;;;;9.89;100.00;92273.88;5081638;28;20052;-78
2023/11/22 01:27:15;;;;;;;5.07;3.15;;;;;;;9.80;100.00;92249.59;5072781;28;20052;-79
2023/11/22 01:29:42;;;;;;;4.80;3.35;;;;;;;9.87;100.00;92259.72;5077115;28;20052;-79
2023/11/22 01:32:09;;;;;;;5.50;3.20;;;;;;;9.79;100.00;92260.88;5068359;28;20045;-78
2023/11/22 01:34:36;;;;;;;5.25;3.70;;;;;;;9.74;100.00;92246.19;5068387;28;20414;-79
2023/11/22 01:37:04;;;;;;;5.70;3.90;;;;;;;9.69;100.00;92245.28;5070187;28;20049;-76
2023/11/22 01:39:30;;;;;;;6.35;3.65;;;;;;;9.74;100.00;92247.94;5070353;28;20436;-77
2023/11/22 01:41:57;;;;;;;5.57;3.55;;;;;;;9.73;100.00;92246.41;5077147;28;20049;-76
2023/11/22 01:44:26;;;;;;;4.85;3.60;;;;;;;9.72;100.00;92232.03;5068340;28;20045;-76
2023/11/22 01:46:53;;;;;;;5.03;3.50;;;;;;;9.73;100.00;92243.84;5068619;28;20127;-76
2023/11/22 01:49:20;;;;;;;5.35;3.88;;;;;;;9.58;100.00;92234.06;5067927;28;20054;-75
2023/11/22 01:51:48;;;;;;;4.40;3.00;;;;;;;9.72;100.00;92252.53;5068286;28;20064;-76
2023/11/22 01:54:16;;;;;;;5.70;3.40;;;;;;;9.76;100.00;92258.75;5068015;28;20055;-76
2023/11/22 01:56:43;;;;;;;4.43;3.30;;;;;;;9.74;100.00;92245.38;5068265;28;20048;-76
2023/11/22 01:59:10;;;;;;;5.47;3.25;;;;;;;9.68;100.00;92244.50;5067913;28;20044;-76
2023/11/22 02:01:39;;;;;;;4.82;3.42;;;;;;;9.68;100.00;92238.59;5072510;28;20066;-76
2023/11/22 02:04:06;;;;;;;8.18;3.60;;;;;;;9.54;100.00;92231.16;5068502;28;20052;-76
2023/11/22 02:06:32;;;;;;;5.95;3.05;;;;;;;9.55;100.00;92234.50;5076557;28;20051;-77
2023/11/22 02:08:59;;;;;;;5.60;3.72;;;;;;;9.54;100.00;92228.59;5081043;28;20052;-77
2023/11/22 02:11:27;;;;;;;6.00;4.07;;;;;;;9.52;100.00;92227.25;5074617;28;20565;-77
2023/11/22 02:13:54;;;;;;;5.75;3.10;;;;;;;9.56;100.00;92234.28;5067875;28;20128;-77
2023/11/22 02:16:21;;;;;;;5.72;3.20;;;;;;;9.59;100.00;92227.94;5072178;28;20052;-79
2023/11/22 02:18:50;;;;;;;4.65;3.05;;;;;;;9.59;100.00;92231.25;5084246;28;20048;-76
2023/11/22 02:21:18;;;;;;;5.07;3.40;;;;;;;9.59;100.00;92241.50;5072426;28;20051;-76
2023/11/22 02:23:46;;;;;;;4.97;3.13;;;;;;;9.61;100.00;92231.03;5067451;28;20049;-77
2023/11/22 02:26:13;;;;;;;5.38;2.88;;;;;;;9.62;100.00;92219.78;5067544;28;20794;-77
2023/11/22 02:28:40;;;;;;;4.40;3.00;;;;;;;9.62;100.00;92223.13;5069358;28;20502;-78
2023/11/22 02:31:06;;;;;;;5.80;3.25;;;;;;;9.66;100.00;92227.78;5067096;28;20052;-77
2023/11/22 02:33:33;;;;;;;5.18;3.40;;;;;;;9.61;100.00;92224.13;5067951;28;20421;-77
2023/11/22 02:36:01;;;;;;;5.80;3.63;;;;;;;9.57;100.00;92220.47;5069419;28;20502;-77
2023/11/22 02:38:28;;;;;;;4.70;3.03;;;;;;;9.57;100.00;92219.66;5068027;28;20055;-77
2023/11/22 02:40:58;;;;;;;5.43;3.10;;;;;;;9.57;100.00;92220.47;5067678;28;20049;-78
2023/11/22 02:43:25;;;;;;;5.40;3.03;;;;;;;9.58;100.00;92222.00;5069259;28;20414;-78
2023/11/22 02:45:51;;;;;;;6.15;3.10;;;;;;;9.57;100.00;92210.22;5067368;28;20639;-77
2023/11/22 02:48:18;;;;;;;4.68;3.00;;;;;;;9.48;100.00;92204.66;5066963;28;20063;-77
2023/11/22 02:50:45;;;;;;;5.15;3.53;;;;;;;9.55;100.00;92219.91;5067238;28;20051;-76
2023/11/22 02:53:12;;;;;;;6.13;3.30;;;;;;;9.58;100.00;92222.00;5067442;28;20055;-76
2023/11/22 02:55:39;;;;;;;5.18;3.00;;;;;;;9.53;100.00;92221.16;5069530;28;20052;-76
2023/11/22 02:58:07;;;;;;;4.03;2.80;;;;;;;9.51;100.00;92218.81;5067343;28;20101;-75
2023/11/22 03:00:35;;;;;;;4.72;3.20;;;;;;;9.43;100.00;92219.94;5068046;28;20048;-76
2023/11/22 03:03:03;;;;;;;3.90;2.78;;;;;;;9.46;100.00;92216.16;5067611;28;20076;-75
2023/11/22 03:05:30;;;;;;;5.30;3.03;;;;;;;9.47;100.00;92212.56;5068906;28;20049;-75
2023/11/22 03:07:58;;;;;;;5.95;3.10;;;;;;;9.47;100.00;92218.50;5068348;28;20136;-75
2023/11/22 03:10:25;;;;;;;5.45;3.47;;;;;;;9.50;100.00;92222.38;5072067;28;20051;-75
2023/11/22 03:12:51;;;;;;;4.47;2.90;;;;;;;9.51;100.00;92218.81;5067812;28;20502;-76
2023/11/22 03:15:20;;;;;;;4.57;2.63;;;;;;;9.48;100.00;92232.06;5074761;28;20045;-75
2023/11/22 03:17:48;;;;;;;3.50;2.60;;;;;;;9.48;100.00;92232.84;5071653;28;20683;-75
2023/11/22 03:20:16;;;;;;;5.03;2.72;;;;;;;9.51;100.00;92239.31;5070611;28;20606;-76
2023/11/22 03:22:43;;;;;;;3.88;2.42;;;;;;;9.52;100.00;92240.06;5070875;28;20080;-76
2023/11/22 03:25:11;;;;;;;4.45;2.63;;;;;;;9.45;100.00;92233.31;5071093;28;20543;-77
2023/11/22 03:27:38;;;;;;;4.65;2.85;;;;;;;9.48;100.00;92237.97;5070662;28;20045;-78
2023/11/22 03:30:10;;;;;;;3.70;2.50;;;;;;;9.51;100.00;92236.75;5070389;28;20538;-77
2023/11/22 03:32:39;;;;;;;4.03;2.85;;;;;;;9.51;100.00;92233.41;5070580;28;20046;-77
2023/11/22 03:35:07;;;;;;;4.28;3.00;;;;;;;9.51;100.00;92230.84;5070715;28;20414;-75
2023/11/22 03:37:33;;;;;;;5.50;3.10;;;;;;;9.56;100.00;92228.38;5070417;28;20045;-75
2023/11/22 03:40:00;;;;;;;5.90;2.55;;;;;;;9.47;100.00;92218.50;5073728;28;20510;-75
2023/11/22 03:42:28;;;;;;;3.35;2.60;;;;;;;9.62;100.00;92228.25;5070293;28;20547;-75
2023/11/22 03:44:55;;;;;;;4.65;2.53;;;;;;;9.59;100.00;92213.31;5077383;28;20048;-76
2023/11/22 03:47:22;;;;;;;4.13;2.72;;;;;;;9.60;100.00;92220.03;5072080;28;20044;-76
2023/11/22 03:49:50;;;;;;;4.13;2.70;;;;;;;9.64;100.00;92225.47;5082848;28;20055;-75
2023/11/22 03:52:17;;;;;;;6.65;3.10;;;;;;;9.58;100.00;92211.75;5081349;28;20049;-76
2023/11/22 03:54:44;;;;;;;9.52;3.20;;;;;;;9.55;100.00;92221.69;5070676;28;20055;-76
2023/11/22 03:57:11;;;;;;;6.38;2.80;;;;;;;9.57;100.00;92220.47;5070281;28;20056;-76
2023/11/22 03:59:38;;;;;;;7.63;3.10;;;;;;;9.57;100.00;92228.16;5071617;28;20052;-77
2023/11/22 04:02:05;;;;;;;8.57;3.45;;;;;;;9.58;100.00;92234.84;5069953;28;20399;-77
2023/11/22 04:04:32;;;;;;;4.43;2.75;;;;;;;9.58;100.00;92241.75;5070579;28;20082;-77
2023/11/22 04:07:00;;;;;;;5.35;3.15;;;;;;;9.56;100.00;92244.53;5069241;28;20056;-76
2023/11/22 04:09:27;;;;;;;7.10;2.88;;;;;;;9.57;100.00;92247.88;5085730;28;20052;-77
2023/11/22 04:11:53;;;;;;;5.95;2.70;;;;;;;9.53;100.00;92244.22;5080228;28;20056;-76
2023/11/22 04:14:21;;;;;;;5.30;2.92;;;;;;;9.63;100.00;92262.38;5069957;28;20044;-76
2023/11/22 04:16:48;;;;;;;5.32;2.65;;;;;;;9.56;100.00;92257.38;5069870;28;20076;-77
2023/11/22 04:19:15;;;;;;;8.25;3.70;;;;;;;9.60;100.00;92273.06;5068625;28;20040;-77
2023/11/22 04:21:42;;;;;;;8.00;4.93;;;;;;;9.57;100.00;92274.31;5074754;28;20056;-76
2023/11/22 04:24:12;;;;;;;5.47;3.55;;;;;;;9.51;100.00;92252.13;5070115;28;20052;-77
2023/11/22 04:26:39;;;;;;;6.15;3.30;;;;;;;9.61;100.00;92272.06;5069917;28;20102;-76
2023/11/22 04:29:06;;;;;;;6.57;3.20;;;;;;;9.58;100.00;92265.59;5070741;28;20055;-75
2023/11/22 04:31:32;;;;;;;4.65;2.97;;;;;;;9.62;100.00;92271.84;5077182;28;20501;-78
2023/11/22 04:34:00;;;;;;;4.00;2.58;;;;;;;9.62;100.00;92268.47;5069226;28;20045;-77
2023/11/22 04:36:27;;;;;;;4.80;2.80;;;;;;;9.57;100.00;92274.31;5068945;28;20045;-77
2023/11/22 04:38:53;;;;;;;4.47;2.83;;;;;;;9.46;100.00;92262.28;5071508;28;20060;-77
2023/11/22 04:41:22;;;;;;;3.55;2.53;;;;;;;9.54;100.00;92276.53;5076853;28;20049;-77
2023/11/22 04:43:49;;;;;;;4.45;2.90;;;;;;;9.57;100.00;92287.13;5070353;28;20498;-77
2023/11/22 04:46:16;;;;;;;6.50;2.65;;;;;;;9.59;100.00;92297.91;5068763;28;20048;-77
2023/11/22 04:48:44;;;;;;;4.47;2.70;;;;;;;9.60;100.00;92299.50;5069335;28;20045;-76
2023/11/22 04:51:12;;;;;;;4.75;2.53;;;;;;;9.51;100.00;92285.47;5069116;28;20098;-76
2023/11/22 04:53:38;;;;;;;5.32;2.60;;;;;;;9.55;100.00;92301.97;5069205;28;20045;-76
2023/11/22 04:56:06;;;;;;;5.18;3.17;;;;;;;9.51;100.00;92303.41;5073005;28;20052;-76
2023/11/22 04:58:35;;;;;;;5.07;3.50;;;;;;;9.52;100.00;92302.41;5069150;28;20060;-77
2023/11/22 05:01:02;;;;;;;4.22;3.10;;;;;;;9.49;100.00;92313.88;5069560;28;20094;-77
2023/11/22 05:03:29;;;;;;;7.15;3.65;;;;;;;9.47;100.00;92315.09;5071067;28;20678;-76
2023/11/22 05:05:56;;;;;;;4.78;3.50;;;;;;;9.25;100.00;92286.72;5075304;28;20048;-77
2023/11/22 05:08:23;;;;;;;5.53;3.42;;;;;;;9.32;100.00;92318.13;5087270;28;20506;-77
2023/11/22 05:10:50;;;;;;;5.97;3.42;;;;;;;9.25;100.00;92309.78;5072496;28;20048;-77
2023/11/22 05:13:16;;;;;;;4.72;3.22;;;;;;;9.33;100.00;92323.03;5068998;28;20055;-77
2023/11/22 05:15:45;;;;;;;4.75;3.05;;;;;;;9.30;100.00;92332.97;5071376;28;20044;-77
2023/11/22 05:18:11;;;;;;;4.93;3.30;;;;;;;9.31;100.00;92329.38;5076138;28;20048;-77
2023/11/22 05:20:38;;;;;;;5.35;3.47;;;;;;;9.28;100.00;92343.44;5068348;28;20047;-77
2023/11/22 05:23:05;;;;;;;4.90;3.10;;;;;;;9.20;100.00;92336.84;5068916;28;20040;-77
2023/11/22 05:25:32;;;;;;;22.20;12.27;;;;;;;9.28;100.00;92351.13;5072907;28;20048;-77
2023/11/22 05:27:59;;;;;;;7.72;5.63;;;;;;;9.31;100.00;92355.03;5068913;28;20048;-77
2023/11/22 05:30:26;;;;;;;6.82;4.13;;;;;;;9.33;100.00;92355.56;5072320;28;20053;-77
2023/11/22 05:32:54;;;;;;;8.80;6.22;;;;;;;9.38;100.00;92360.81;5068762;28;20055;-78
2023/11/22 05:35:21;;;;;;;8.40;5.57;;;;;;;9.39;100.00;92364.91;5068275;28;20048;-78
2023/11/22 05:37:49;;;;;;;6.43;5.22;;;;;;;9.48;100.00;92367.94;5069101;28;20048;-78
2023/11/22 05:40:16;;;;;;;9.00;6.35;;;;;;;9.35;100.00;92366.38;5073106;28;20055;-78
2023/11/22 05:42:43;;;;;;;9.15;6.47;;;;;;;9.33;100.00;92366.59;5068014;28;20509;-78
2023/11/22 05:45:10;;;;;;;9.55;6.82;;;;;;;9.36;100.00;92370.50;5071447;28;20032;-78
2023/11/22 05:47:37;;;;;;;9.48;6.82;;;;;;;9.33;100.00;92368.38;5069066;28;20041;-78
2023/11/22 05:50:06;;;;;;;10.48;7.20;;;;;;;9.36;100.00;92370.50;5070064;28;20532;-77
2023/11/22 05:52:33;;;;;;;6.93;5.22;;;;;;;9.36;100.00;92378.97;5068532;28;20064;-78
2023/11/22 05:55:03;;;;;;;14.70;10.98;;;;;;;9.38;100.00;92380.50;5068034;28;20048;-78
2023/11/22 05:57:30;;;;;;;12.68;8.27;;;;;;;9.34;100.00;92390.44;5069720;28;20072;-78
2023/11/22 05:59:57;;;;;;;13.85;8.88;;;;;;;9.38;100.00;92383.88;5070522;28;20058;-78
2023/11/22 06:02:24;;;;;;;17.35;10.52;;;;;;;9.44;100.00;92389.91;5074840;28;20516;-77
2023/11/22 06:04:50;;;;;;;9.75;5.82;;;;;;;9.46;100.00;92391.25;5068595;28;20056;-79
2023/11/22 06:07:19;;;;;;;8.98;5.93;;;;;;;9.46;100.00;92388.69;5068588;28;20071;-78
2023/11/22 06:09:45;;;;;;;7.18;3.80;;;;;;;9.51;100.00;92398.25;5067749;28;20053;-78
2023/11/22 06:12:12;;;;;;;5.70;4.28;;;;;;;9.49;100.00;92395.13;5072507;28;20061;-78
2023/11/22 06:14:39;;;;;;;6.65;3.85;;;;;;;9.50;100.00;92396.69;5068333;28;20045;-78
2023/11/22 06:17:06;;;;;;;5.13;3.60;;;;;;;9.44;100.00;92390.66;5071422;28;20059;-78
2023/11/22 06:19:33;;;;;;;4.97;3.15;;;;;;;9.51;100.00;92400.81;5067625;28;20053;-78
2023/11/22 06:22:00;;;;;;;6.20;3.17;;;;;;;9.45;100.00;92394.78;5073489;28;20063;-78
2023/11/22 06:24:28;;;;;;;5.28;3.22;;;;;;;9.49;100.00;92392.56;5075735;28;20418;-78
2023/11/22 06:26:55;;;;;;;4.55;3.20;;;;;;;9.51;100.00;92405.16;5067348;28;20048;-78
2023/11/22 06:29:22;;;;;;;5.30;3.15;;;;;;;9.49;100.00;92420.75;5071490;28;20052;-77
2023/11/22 06:31:49;;;;;;;5.35;3.28;;;;;;;9.55;100.00;92414.75;5066875;28;20517;-77
2023/11/22 06:34:16;;;;;;;5.63;3.28;;;;;;;9.59;100.00;92436.38;5069734;28;20067;-77
2023/11/22 06:36:43;;;;;;;5.22;2.97;;;;;;;9.62;100.00;92438.50;5067892;28;20523;-78
2023/11/22 06:39:13;;;;;;;3.95;3.10;;;;;;;9.62;100.00;92430.03;5073812;28;20568;-78
2023/11/22 06:41:41;;;;;;;6.28;3.42;;;;;;;9.59;100.00;92436.38;5070879;28;20040;-78
2023/11/22 06:44:09;;;;;;;5.35;3.42;;;;;;;9.59;100.00;92430.47;5083064;28;20075;-78
2023/11/22 06:46:36;;;;;;;5.22;3.33;;;;;;;9.62;100.00;92438.50;5068734;28;20143;-77
2023/11/22 06:49:03;;;;;;;4.63;3.40;;;;;;;9.66;100.00;92449.09;5070322;28;20059;-78
2023/11/22 06:51:29;;;;;;;6.38;4.15;;;;;;;9.74;100.00;92455.69;5073334;28;20152;-78
2023/11/22 06:53:56;;;;;;;6.60;4.68;;;;;;;9.78;100.00;92456.81;5073188;28;20048;-78
2023/11/22 06:56:23;;;;;;;7.05;4.97;;;;;;;9.79;100.00;92452.44;5074104;28;20050;-78
2023/11/22 06:58:51;;;;;;;8.88;5.90;;;;;;;9.80;100.00;92459.13;5076918;28;20055;-78
2023/11/22 07:01:18;;;;;;;10.48;7.25;;;;;;;9.81;100.00;92453.00;5072622;28;20129;-78
2023/11/22 07:03:45;;;;;;;9.38;7.13;;;;;;;9.85;100.00;92460.03;5082643;28;20059;-78
2023/11/22 07:06:12;;;;;;;15.77;8.45;;;;;;;9.91;100.00;92445.53;5075629;28;20049;-77
2023/11/22 07:08:39;;;;;;;12.10;8.75;;;;;;;9.99;100.00;92460.56;5072409;28;20055;-77
2023/11/22 07:11:09;;;;;;;17.25;10.80;;;;;;;9.93;100.00;92445.28;5074147;28;20056;-79
2023/11/22 07:13:38;;;;;;;13.75;9.00;;;;;;;9.98;100.00;92459.03;5073306;28;20094;-78
2023/11/22 07:16:07;;;;;;;15.85;8.73;;;;;;;10.08;100.00;92473.06;5082080;28;20048;-78
2023/11/22 07:18:34;;;;;;;12.25;8.52;;;;;;;10.08;100.00;92473.84;5075777;28;20044;-78
2023/11/22 07:21:00;;;;;;;13.77;8.70;;;;;;;10.00;100.00;92462.13;5072673;28;20052;-78
2023/11/22 07:23:28;;;;;;;23.35;14.70;;;;;;;10.16;100.00;92481.22;5070250;28;20050;-78
2023/11/22 07:25:55;;;;;;;23.15;15.68;;;;;;;10.21;100.00;92479.75;5076966;28;20051;-78
2023/11/22 07:28:22;;;;;;;26.67;17.08;;;;;;;10.21;100.00;92477.19;5073582;28;20587;-78
2023/11/22 07:30:49;;;;;;;27.80;16.98;;;;;;;10.28;100.00;92493.25;5070777;28;20056;-78
2023/11/22 07:33:20;;;;;;;24.15;15.30;;;;;;;10.28;100.00;92490.69;5072507;28;20076;-78
2023/11/22 07:35:47;;;;;;;20.70;12.68;;;;;;;10.31;100.00;92490.22;5080563;28;20063;-78
2023/11/22 07:38:14;;;;;;;17.95;11.55;;;;;;;10.34;100.00;92484.66;5076416;28;20075;-78
2023/11/22 07:40:41;;;;;;;17.58;11.55;;;;;;;10.38;100.00;92492.69;5080449;28;20189;-78
2023/11/22 07:43:09;;;;;;;16.20;9.75;;;;;;;10.32;100.00;92484.06;5076700;28;20044;-78
2023/11/22 07:45:37;;;;;;;16.40;9.23;;;;;;;10.41;100.00;92489.63;5076624;28;20829;-78
2023/11/22 07:48:04;;;;;;;18.05;9.32;;;;;;;10.42;100.00;92492.00;5072194;28;20131;-78
2023/11/22 07:50:33;;;;;;;14.10;8.13;;;;;;;10.47;100.00;92483.66;5072977;28;20056;-78
2023/11/22 07:53:00;;;;;;;12.00;7.95;;;;;;;10.47;100.00;92480.31;5083496;28;20093;-78
2023/11/22 07:55:27;;;;;;;10.00;7.07;;;;;;;10.51;100.00;92486.56;5078001;28;20060;-78
2023/11/22 07:57:55;;;;;;;9.02;6.20;;;;;;;10.51;100.00;92489.13;5071951;28;20056;-78
2023/11/22 08:00:22;;;;;;;8.82;5.40;;;;;;;10.25;100.00;92445.72;5070019;28;20051;-78
2023/11/22 08:02:49;;;;;;;8.48;5.50;;;;;;;10.60;100.00;92492.88;5073094;28;20055;-78
2023/11/22 08:05:17;;;;;;;8.10;5.50;;;;;;;10.62;100.00;92495.22;5070630;28;20502;-78
2023/11/22 08:07:45;;;;;;;11.05;5.30;;;;;;;10.66;100.00;92498.91;5070978;28;20059;-78
2023/11/22 08:10:18;;;;;;;7.15;4.22;;;;;;;10.68;100.00;92502.81;5071391;28;20055;-78
2023/11/22 08:12:46;;;;;;;7.85;4.90;;;;;;;10.69;100.00;92499.22;5074580;28;20056;-79
2023/11/22 08:15:15;;;;;;;7.65;4.78;;;;;;;10.71;100.00;92504.13;5070712;28;20048;-79
2023/11/22 08:17:42;;;;;;;5.90;4.60;;;;;;;10.67;100.00;92503.03;5075358;28;20045;-78
2023/11/22 08:20:13;;;;;;;6.20;4.15;;;;;;;10.68;100.00;92500.25;5074740;28;20048;-79
2023/11/22 08:22:40;;;;;;;5.95;3.70;;;;;;;10.64;100.00;92496.56;5070887;28;20082;-78
2023/11/22 08:25:12;;;;;;;5.28;3.95;;;;;;;10.63;100.00;92499.34;5071261;28;20053;-79
2023/11/22 08:27:40;;;;;;;6.60;3.83;;;;;;;10.56;100.00;92497.69;5069986;28;20052;-79
2023/11/22 08:30:12;;;;;;;6.18;3.45;;;;;;;10.59;100.00;92504.16;5072101;28;20051;-79
2023/11/22 08:32:40;;;;;;;6.75;3.60;;;;;;;10.54;100.00;92502.28;5075265;28;20044;-79
2023/11/22 08:35:09;;;;;;;5.65;3.65;;;;;;;10.54;100.00;92499.72;5069378;28;20525;-79
2023/11/22 08:37:37;;;;;;;6.43;4.30;;;;;;;10.52;100.00;92501.72;5077266;28;20793;-79
2023/11/22 08:40:06;;;;;;;9.02;4.50;;;;;;;10.47;100.00;92500.84;5069558;28;20056;-78
2023/11/22 08:42:36;;;;;;;14.98;6.50;;;;;;;10.47;100.00;92499.06;5085455;28;20055;-79
2023/11/22 08:45:03;;;;;;;11.45;6.30;;;;;;;10.41;100.00;92487.88;5080487;28;20089;-79
2023/11/22 08:47:31;;;;;;;7.00;4.20;;;;;;;10.47;100.00;92504.19;5079269;28;20448;-79
2023/11/22 08:49:58;;;;;;;7.95;4.18;;;;;;;10.56;100.00;92514.91;5082634;28;20052;-80
2023/11/22 08:52:25;;;;;;;10.05;4.68;;;;;;;10.62;100.00;92516.56;5069140;28;20080;-78
2023/11/22 08:54:52;;;;;;;7.82;4.50;;;;;;;10.64;100.00;92524.81;5069522;28;20044;-78
2023/11/22 08:57:20;;;;;;;7.07;4.57;;;;;;;10.69;100.00;92521.56;5068917;28;20094;-79
2023/11/22 08:59:48;;;;;;;8.10;4.93;;;;;;;10.77;100.00;92530.69;5069133;28;20143;-78
2023/11/22 09:02:15;;;;;;;14.98;7.18;;;;;;;10.87;100.00;92533.47;5069548;28;21060;-78
2023/11/22 09:04:42;;;;;;;12.23;6.30;;;;;;;10.91;100.00;92519.16;5068813;28;20106;-78
2023/11/22 09:07:11;;;;;;;8.95;5.50;;;;;;;11.01;100.00;92530.66;5068513;28;20048;-79
2023/11/22 09:09:37;;;;;;;7.97;5.10;;;;;;;11.06;100.00;92531.50;5068973;28;20049;-78
2023/11/22 09:12:12;;;;;;;12.02;6.57;;;;;;;11.14;100.00;92530.38;5068549;28;20059;-78
2023/11/22 09:14:40;;;;;;;8.43;4.80;;;;;;;11.18;100.00;92541.75;5068630;28;20535;-79
2023/11/22 09:17:09;;;;;;;9.88;6.13;;;;;;;11.18;100.00;92543.53;5068664;28;20127;-78
2023/11/22 09:19:36;;;;;;;11.88;7.43;;;;;;;10.99;100.00;92515.44;5075161;28;20076;-78
2023/11/22 09:22:05;;;;;;;11.52;6.57;;;;;;;11.27;100.00;92544.72;5073539;28;20050;-77
2023/11/22 09:24:33;;;;;;;8.30;5.50;;;;;;;11.32;100.00;92549.97;5075656;28;20052;-78
2023/11/22 09:27:04;;;;;;;11.68;5.38;;;;;;;11.23;100.00;92541.06;5070984;28;20052;-78
2023/11/22 09:29:32;;;;;;;9.77;5.43;;;;;;;11.36;100.00;92556.19;5074517;28;20040;-78
2023/11/22 09:32:00;;;;;;;7.90;5.35;;;;;;;11.38;100.00;92548.25;5075474;28;20049;-79
2023/11/22 09:34:29;;;;;;;7.25;4.72;;;;;;;11.45;100.00;92551.47;5077643;28;20075;-78
2023/11/22 09:36:56;;;;;;;6.80;4.50;;;;;;;11.50;100.00;92545.63;5073066;28;20492;-78
2023/11/22 09:39:24;;;;;;;7.65;4.38;;;;;;;11.53;100.00;92552.13;5080764;28;20048;-78
2023/11/22 09:41:52;;;;;;;9.02;4.25;;;;;;;11.49;100.00;92554.38;5075644;28;20134;-77
2023/11/22 09:44:20;;;;;;;6.25;3.88;;;;;;;11.50;100.00;92566.22;5078671;28;20044;-77
2023/11/22 09:46:50;;;;;;;6.00;4.50;;;;;;;11.46;100.00;92553.03;5078506;28;20426;-78
2023/11/22 09:49:24;;;;;;;6.22;4.45;;;;;;;11.49;100.00;92551.81;5071371;28;20043;-77
2023/11/22 09:51:55;;;;;;;7.22;4.32;;;;;;;11.32;100.00;92529.41;5079015;28;20060;-78
2023/11/22 09:54:29;;;;;;;7.63;4.53;;;;;;;11.47;100.00;92533.22;5079381;28;20036;-78
2023/11/22 09:57:00;;;;;;;7.10;5.13;;;;;;;11.55;100.00;92543.16;5074762;28;20052;-79
2023/11/22 09:59:28;;;;;;;5.53;4.63;;;;;;;11.50;100.00;92535.34;5079417;28;20072;-78
2023/11/22 10:01:55;;;;;;;6.43;4.80;;;;;;;11.58;100.00;92544.47;5075357;28;20052;-78
2023/11/22 10:04:24;;;;;;;8.15;5.03;;;;;;;11.52;100.00;92541.03;5075562;28;20049;-78
2023/11/22 10:06:53;;;;;;;7.57;5.32;;;;;;;11.59;100.00;92546.84;5079033;28;20421;-78
2023/11/22 10:09:24;;;;;;;9.52;7.28;;;;;;;11.63;100.00;92540.19;5071645;28;20050;-77
2023/11/22 10:11:50;;;;;;;12.68;10.18;;;;;;;11.71;100.00;92540.84;5077508;28;20055;-77
2023/11/22 10:14:25;;;;;;;18.25;13.70;;;;;;;11.79;100.00;92544.81;5075419;28;20041;-77
2023/11/22 10:16:59;;;;;;;15.80;10.90;;;;;;;11.85;100.00;92536.94;5074343;28;20432;-77
2023/11/22 10:19:26;;;;;;;26.58;17.17;;;;;;;11.72;100.00;92534.69;5074680;28;20044;-77
2023/11/22 10:22:04;;;;;;;28.23;19.40;;;;;;;11.49;100.00;92546.66;5072269;28;20048;-77
2023/11/22 10:24:33;;;;;;;30.63;20.40;;;;;;;11.61;100.00;92536.28;5074835;28;20048;-77
2023/11/22 10:27:00;;;;;;;25.23;17.38;;;;;;;11.52;100.00;92514.56;5077370;28;20091;-77
2023/11/22 10:29:27;;;;;;;25.45;18.65;;;;;;;11.85;100.00;92541.31;5074729;28;20059;-77
2023/11/22 10:31:54;;;;;;;16.05;10.70;;;;;;;11.95;100.00;92543.25;5077134;28;20052;-77
2023/11/22 10:34:22;;;;;;;15.60;8.98;;;;;;;12.02;100.00;92541.28;5080348;28;20406;-77
2023/11/22 10:36:49;;;;;;;11.40;8.60;;;;;;;12.05;100.00;92532.34;5072537;28;20489;-77
2023/11/22 10:39:21;;;;;;;8.85;5.30;;;;;;;12.14;100.00;92539.44;5079722;28;20144;-77
2023/11/22 10:41:51;;;;;;;8.77;6.38;;;;;;;12.23;100.00;92541.63;5072766;28;20076;-77
2023/11/22 10:44:21;;;;;;;8.63;5.95;;;;;;;12.27;100.00;92542.72;5073049;28;20044;-77
2023/11/22 10:46:48;;;;;;;6.60;4.22;;;;;;;12.32;100.00;92542.81;5073220;28;20067;-77
2023/11/22 10:49:15;;;;;;;5.10;4.00;;;;;;;12.27;100.00;92543.50;5072945;28;20846;-77
2023/11/22 10:51:44;;;;;;;4.90;3.78;;;;;;;12.39;100.00;92547.75;5077728;28;20051;-78
2023/11/22 10:54:12;;;;;;;6.82;3.50;;;;;;;12.19;100.00;92520.72;5069393;28;20051;-78
2023/11/22 10:56:42;;;;;;;8.75;5.07;;;;;;;12.35;100.00;92552.63;5074756;28;20072;-78
2023/11/22 10:59:14;;;;;;;7.40;5.43;;;;;;;12.36;100.00;92540.53;5074860;28;20472;-78
2023/11/22 11:01:46;;;;;;;6.35;4.63;;;;;;;12.43;100.00;92546.28;5076150;28;20047;-78
2023/11/22 11:04:20;;;;;;;8.00;4.20;;;;;;;12.47;100.00;92549.94;5072943;28;20055;-77
2023/11/22 11:06:56;;;;;;;7.28;5.50;;;;;;;12.50;100.00;92557.19;5076286;28;20131;-78
2023/11/22 11:09:26;;;;;;;12.52;7.78;;;;;;;12.57;100.00;92562.19;5072804;28;20086;-78
2023/11/22 11:11:56;;;;;;;10.70;8.40;;;;;;;12.58;100.00;92547.50;5074147;28;20056;-77
2023/11/22 11:14:24;;;;;;;16.70;8.07;;;;;;;12.63;100.00;92545.75;5070769;28;20041;-78
2023/11/22 11:16:54;;;;;;;12.18;9.20;;;;;;;12.54;100.00;92527.38;5074594;28;20048;-78
2023/11/22 11:19:22;;;;;;;8.10;6.80;;;;;;;12.59;100.00;92531.78;5075025;28;20520;-79
2023/11/22 11:21:49;;;;;;;7.88;6.85;;;;;;;12.63;100.00;92548.34;5074520;28;20119;-78
2023/11/22 11:24:16;;;;;;;10.05;8.95;;;;;;;12.64;100.00;92544.75;5069724;28;20056;-78
2023/11/22 11:26:51;;;;;;;7.70;6.90;;;;;;;12.60;100.00;92535.94;5070140;28;20048;-79
2023/11/22 11:29:32;;;;;;;8.55;5.65;;;;;;;12.49;100.00;92521.38;5067188;28;20140;-78
2023/11/22 11:31:59;;;;;;;8.40;5.00;;;;;;;12.65;100.00;92551.44;5066329;28;20502;-78